sensor_id;sensor_type;location;lat;lon;timestamp;P1;durP1;ratioP1;P2;durP2;ratioP2
65073;SDS011;52218;51.224;-2.328;2022-07-06T00:02:10;0.75;;;0.50;;
65073;SDS011;52218;51.224;-2.328;2022-07-06T00:05:52;2.50;;;0.55;;
65073;SDS011;52218;51.224;-2.328;2022-07-06T00:09:33;1.10;;;0.50;;
65073;SDS011;52218;51.224;-2.328;2022-07-06T00:13:15;0.90;;;0.50;;
65073;SDS011;52218;51.224;-2.328;2022-07-06T00:16:57;0.45;;;0.40;;
65073;SDS011;52218;51.224;-2.328;2022-07-06T00:20:39;0.68;;;0.45;;
65073;SDS011;52218;51.224;-2.328;2022-07-06T00:24:21;1.40;;;0.57;;
65073;SDS011;52218;51.224;-2.328;2022-07-06T00:28:03;1.13;;;0.45;;
65073;SDS011;52218;51.224;-2.328;2022-07-06T00:31:45;0.93;;;0.60;;
65073;SDS011;52218;51.224;-2.328;2022-07-06T00:35:27;0.75;;;0.45;;
65073;SDS011;52218;51.224;-2.328;2022-07-06T00:39:09;1.40;;;0.63;;
65073;SDS011;52218;51.224;-2.328;2022-07-06T00:42:51;1.35;;;0.50;;
65073;SDS011;52218;51.224;-2.328;2022-07-06T00:46:33;0.80;;;0.50;;
65073;SDS011;52218;51.224;-2.328;2022-07-06T00:50:18;1.30;;;0.60;;
65073;SDS011;52218;51.224;-2.328;2022-07-06T00:54:03;1.10;;;0.60;;
65073;SDS011;52218;51.224;-2.328;2022-07-06T00:57:46;1.05;;;0.50;;
65073;SDS011;52218;51.224;-2.328;2022-07-06T01:01:28;1.13;;;0.77;;
65073;SDS011;52218;51.224;-2.328;2022-07-06T01:05:11;1.42;;;0.50;;
65073;SDS011;52218;51.224;-2.328;2022-07-06T01:08:54;0.90;;;0.47;;
65073;SDS011;52218;51.224;-2.328;2022-07-06T01:12:37;1.30;;;0.80;;
65073;SDS011;52218;51.224;-2.328;2022-07-06T01:16:20;2.20;;;0.60;;
65073;SDS011;52218;51.224;-2.328;2022-07-06T01:20:10;1.27;;;0.63;;
65073;SDS011;52218;51.224;-2.328;2022-07-06T01:23:56;1.58;;;0.60;;
65073;SDS011;52218;51.224;-2.328;2022-07-06T01:27:39;0.93;;;0.60;;
65073;SDS011;52218;51.224;-2.328;2022-07-06T01:31:23;2.42;;;0.50;;
65073;SDS011;52218;51.224;-2.328;2022-07-06T01:35:07;1.27;;;0.60;;
65073;SDS011;52218;51.224;-2.328;2022-07-06T01:38:54;1.33;;;0.50;;
65073;SDS011;52218;51.224;-2.328;2022-07-06T01:42:40;0.70;;;0.47;;
65073;SDS011;52218;51.224;-2.328;2022-07-06T01:46:22;1.20;;;0.60;;
65073;SDS011;52218;51.224;-2.328;2022-07-06T01:50:06;0.85;;;0.55;;
65073;SDS011;52218;51.224;-2.328;2022-07-06T01:53:50;0.80;;;0.50;;
65073;SDS011;52218;51.224;-2.328;2022-07-06T01:57:32;0.95;;;0.57;;
65073;SDS011;52218;51.224;-2.328;2022-07-06T02:01:18;1.55;;;0.70;;
65073;SDS011;52218;51.224;-2.328;2022-07-06T02:05:01;0.98;;;0.60;;
65073;SDS011;52218;51.224;-2.328;2022-07-06T02:08:43;0.80;;;0.50;;
65073;SDS011;52218;51.224;-2.328;2022-07-06T02:12:25;1.40;;;0.60;;
65073;SDS011;52218;51.224;-2.328;2022-07-06T02:16:08;1.02;;;0.60;;
65073;SDS011;52218;51.224;-2.328;2022-07-06T02:19:50;0.98;;;0.47;;
65073;SDS011;52218;51.224;-2.328;2022-07-06T02:23:32;0.68;;;0.55;;
65073;SDS011;52218;51.224;-2.328;2022-07-06T02:27:14;0.70;;;0.57;;
65073;SDS011;52218;51.224;-2.328;2022-07-06T02:30:55;1.35;;;0.70;;
65073;SDS011;52218;51.224;-2.328;2022-07-06T02:34:37;1.00;;;0.60;;
65073;SDS011;52218;51.224;-2.328;2022-07-06T02:38:19;0.60;;;0.43;;
65073;SDS011;52218;51.224;-2.328;2022-07-06T02:42:02;1.13;;;0.70;;
65073;SDS011;52218;51.224;-2.328;2022-07-06T02:45:44;1.20;;;0.52;;
65073;SDS011;52218;51.224;-2.328;2022-07-06T02:49:26;0.90;;;0.65;;
65073;SDS011;52218;51.224;-2.328;2022-07-06T02:53:08;1.20;;;0.60;;
65073;SDS011;52218;51.224;-2.328;2022-07-06T02:56:50;0.80;;;0.70;;
65073;SDS011;52218;51.224;-2.328;2022-07-06T03:00:34;1.98;;;0.60;;
65073;SDS011;52218;51.224;-2.328;2022-07-06T03:04:16;1.25;;;0.60;;
65073;SDS011;52218;51.224;-2.328;2022-07-06T03:07:58;1.33;;;0.80;;
65073;SDS011;52218;51.224;-2.328;2022-07-06T03:11:40;1.15;;;0.60;;
65073;SDS011;52218;51.224;-2.328;2022-07-06T03:15:22;0.82;;;0.60;;
65073;SDS011;52218;51.224;-2.328;2022-07-06T03:19:04;0.80;;;0.60;;
65073;SDS011;52218;51.224;-2.328;2022-07-06T03:22:46;1.10;;;0.60;;
65073;SDS011;52218;51.224;-2.328;2022-07-06T03:26:28;0.98;;;0.70;;
65073;SDS011;52218;51.224;-2.328;2022-07-06T03:30:10;2.00;;;0.60;;
65073;SDS011;52218;51.224;-2.328;2022-07-06T03:33:54;0.93;;;0.55;;
65073;SDS011;52218;51.224;-2.328;2022-07-06T03:37:36;1.10;;;0.77;;
65073;SDS011;52218;51.224;-2.328;2022-07-06T03:41:18;1.23;;;0.70;;
65073;SDS011;52218;51.224;-2.328;2022-07-06T03:45:00;1.88;;;0.80;;
65073;SDS011;52218;51.224;-2.328;2022-07-06T03:48:42;0.90;;;0.65;;
65073;SDS011;52218;51.224;-2.328;2022-07-06T03:52:24;3.92;;;1.10;;
65073;SDS011;52218;51.224;-2.328;2022-07-06T03:56:06;0.93;;;0.63;;
65073;SDS011;52218;51.224;-2.328;2022-07-06T04:00:07;1.33;;;0.70;;
65073;SDS011;52218;51.224;-2.328;2022-07-06T04:03:50;8.07;;;0.88;;
65073;SDS011;52218;51.224;-2.328;2022-07-06T04:07:32;1.23;;;0.90;;
65073;SDS011;52218;51.224;-2.328;2022-07-06T04:11:14;1.10;;;0.80;;
65073;SDS011;52218;51.224;-2.328;2022-07-06T04:14:56;1.40;;;0.73;;
65073;SDS011;52218;51.224;-2.328;2022-07-06T04:18:38;1.42;;;0.77;;
65073;SDS011;52218;51.224;-2.328;2022-07-06T04:22:21;1.20;;;0.80;;
65073;SDS011;52218;51.224;-2.328;2022-07-06T04:26:03;1.40;;;0.80;;
65073;SDS011;52218;51.224;-2.328;2022-07-06T04:29:45;1.67;;;0.70;;
65073;SDS011;52218;51.224;-2.328;2022-07-06T04:33:26;1.38;;;0.90;;
65073;SDS011;52218;51.224;-2.328;2022-07-06T04:37:08;3.22;;;0.93;;
65073;SDS011;52218;51.224;-2.328;2022-07-06T04:40:50;2.25;;;0.90;;
65073;SDS011;52218;51.224;-2.328;2022-07-06T04:44:32;1.73;;;0.90;;
65073;SDS011;52218;51.224;-2.328;2022-07-06T04:48:14;1.15;;;0.80;;
65073;SDS011;52218;51.224;-2.328;2022-07-06T04:51:56;2.20;;;0.90;;
65073;SDS011;52218;51.224;-2.328;2022-07-06T04:55:38;1.83;;;0.98;;
65073;SDS011;52218;51.224;-2.328;2022-07-06T04:59:20;1.67;;;0.90;;
65073;SDS011;52218;51.224;-2.328;2022-07-06T05:03:02;1.25;;;0.85;;
65073;SDS011;52218;51.224;-2.328;2022-07-06T05:06:44;1.63;;;1.00;;
65073;SDS011;52218;51.224;-2.328;2022-07-06T05:10:27;1.50;;;0.80;;
65073;SDS011;52218;51.224;-2.328;2022-07-06T05:14:08;3.33;;;0.95;;
65073;SDS011;52218;51.224;-2.328;2022-07-06T05:17:51;1.33;;;0.98;;
65073;SDS011;52218;51.224;-2.328;2022-07-06T05:21:33;1.40;;;1.00;;
65073;SDS011;52218;51.224;-2.328;2022-07-06T05:25:15;1.50;;;1.10;;
65073;SDS011;52218;51.224;-2.328;2022-07-06T05:28:57;2.05;;;1.00;;
65073;SDS011;52218;51.224;-2.328;2022-07-06T05:32:39;2.03;;;1.20;;
65073;SDS011;52218;51.224;-2.328;2022-07-06T05:36:21;1.80;;;1.17;;
65073;SDS011;52218;51.224;-2.328;2022-07-06T05:40:03;1.70;;;1.10;;
65073;SDS011;52218;51.224;-2.328;2022-07-06T05:43:45;1.98;;;1.10;;
65073;SDS011;52218;51.224;-2.328;2022-07-06T05:47:27;2.33;;;1.23;;
65073;SDS011;52218;51.224;-2.328;2022-07-06T05:51:27;2.00;;;1.00;;
65073;SDS011;52218;51.224;-2.328;2022-07-06T05:55:09;1.48;;;1.02;;
65073;SDS011;52218;51.224;-2.328;2022-07-06T05:58:52;2.30;;;1.00;;
65073;SDS011;52218;51.224;-2.328;2022-07-06T06:02:41;1.90;;;0.80;;
65073;SDS011;52218;51.224;-2.328;2022-07-06T06:06:23;1.10;;;0.77;;
65073;SDS011;52218;51.224;-2.328;2022-07-06T06:10:09;1.15;;;0.85;;
65073;SDS011;52218;51.224;-2.328;2022-07-06T06:13:53;2.22;;;0.90;;
65073;SDS011;52218;51.224;-2.328;2022-07-06T06:17:35;2.78;;;0.90;;
65073;SDS011;52218;51.224;-2.328;2022-07-06T06:21:18;2.13;;;0.90;;
65073;SDS011;52218;51.224;-2.328;2022-07-06T06:25:00;1.90;;;0.88;;
65073;SDS011;52218;51.224;-2.328;2022-07-06T06:28:42;2.65;;;0.70;;
65073;SDS011;52218;51.224;-2.328;2022-07-06T06:32:24;1.23;;;0.63;;
65073;SDS011;52218;51.224;-2.328;2022-07-06T06:36:06;1.60;;;0.93;;
65073;SDS011;52218;51.224;-2.328;2022-07-06T06:39:48;1.30;;;0.70;;
65073;SDS011;52218;51.224;-2.328;2022-07-06T06:43:30;1.85;;;0.55;;
65073;SDS011;52218;51.224;-2.328;2022-07-06T06:47:12;0.80;;;0.57;;
65073;SDS011;52218;51.224;-2.328;2022-07-06T06:50:54;2.47;;;0.60;;
65073;SDS011;52218;51.224;-2.328;2022-07-06T06:54:36;2.45;;;0.70;;
65073;SDS011;52218;51.224;-2.328;2022-07-06T06:58:18;1.90;;;0.70;;
65073;SDS011;52218;51.224;-2.328;2022-07-06T07:02:00;2.00;;;0.60;;
65073;SDS011;52218;51.224;-2.328;2022-07-06T07:05:42;1.40;;;0.70;;
65073;SDS011;52218;51.224;-2.328;2022-07-06T07:09:24;0.75;;;0.20;;
65073;SDS011;52218;51.224;-2.328;2022-07-06T07:13:06;1.08;;;0.30;;
65073;SDS011;52218;51.224;-2.328;2022-07-06T07:16:48;0.63;;;0.32;;
65073;SDS011;52218;51.224;-2.328;2022-07-06T07:20:30;0.85;;;0.32;;
65073;SDS011;52218;51.224;-2.328;2022-07-06T07:24:14;0.52;;;0.30;;
65073;SDS011;52218;51.224;-2.328;2022-07-06T07:27:56;0.50;;;0.20;;
65073;SDS011;52218;51.224;-2.328;2022-07-06T07:31:38;1.42;;;0.40;;
65073;SDS011;52218;51.224;-2.328;2022-07-06T07:35:20;0.55;;;0.20;;
65073;SDS011;52218;51.224;-2.328;2022-07-06T07:39:02;0.50;;;0.30;;
65073;SDS011;52218;51.224;-2.328;2022-07-06T07:42:45;0.73;;;0.40;;
65073;SDS011;52218;51.224;-2.328;2022-07-06T07:46:27;0.30;;;0.20;;
65073;SDS011;52218;51.224;-2.328;2022-07-06T07:50:09;1.23;;;0.40;;
65073;SDS011;52218;51.224;-2.328;2022-07-06T07:53:51;0.47;;;0.28;;
65073;SDS011;52218;51.224;-2.328;2022-07-06T07:57:33;0.55;;;0.35;;
65073;SDS011;52218;51.224;-2.328;2022-07-06T08:01:15;1.05;;;0.20;;
65073;SDS011;52218;51.224;-2.328;2022-07-06T08:04:57;0.30;;;0.20;;
65073;SDS011;52218;51.224;-2.328;2022-07-06T08:08:39;1.45;;;0.40;;
65073;SDS011;52218;51.224;-2.328;2022-07-06T08:12:21;0.50;;;0.22;;
65073;SDS011;52218;51.224;-2.328;2022-07-06T08:16:03;0.65;;;0.40;;
65073;SDS011;52218;51.224;-2.328;2022-07-06T08:19:45;1.35;;;0.40;;
65073;SDS011;52218;51.224;-2.328;2022-07-06T08:23:30;0.73;;;0.22;;
65073;SDS011;52218;51.224;-2.328;2022-07-06T08:27:12;1.17;;;0.40;;
65073;SDS011;52218;51.224;-2.328;2022-07-06T08:30:54;0.57;;;0.30;;
65073;SDS011;52218;51.224;-2.328;2022-07-06T08:34:36;1.05;;;0.30;;
65073;SDS011;52218;51.224;-2.328;2022-07-06T08:38:18;0.22;;;0.20;;
65073;SDS011;52218;51.224;-2.328;2022-07-06T08:42:00;0.43;;;0.10;;
65073;SDS011;52218;51.224;-2.328;2022-07-06T08:45:43;0.52;;;0.25;;
65073;SDS011;52218;51.224;-2.328;2022-07-06T08:49:27;0.95;;;0.30;;
65073;SDS011;52218;51.224;-2.328;2022-07-06T08:53:10;0.47;;;0.17;;
65073;SDS011;52218;51.224;-2.328;2022-07-06T08:56:52;0.20;;;0.10;;
65073;SDS011;52218;51.224;-2.328;2022-07-06T09:00:34;0.20;;;0.10;;
65073;SDS011;52218;51.224;-2.328;2022-07-06T09:04:17;0.80;;;0.20;;
65073;SDS011;52218;51.224;-2.328;2022-07-06T09:08:03;0.22;;;0.10;;
65073;SDS011;52218;51.224;-2.328;2022-07-06T09:11:45;0.40;;;0.20;;
65073;SDS011;52218;51.224;-2.328;2022-07-06T09:15:28;0.30;;;0.20;;
65073;SDS011;52218;51.224;-2.328;2022-07-06T09:19:11;0.82;;;0.20;;
65073;SDS011;52218;51.224;-2.328;2022-07-06T09:22:56;0.88;;;0.20;;
65073;SDS011;52218;51.224;-2.328;2022-07-06T09:26:42;0.85;;;0.20;;
65073;SDS011;52218;51.224;-2.328;2022-07-06T09:30:26;0.63;;;0.30;;
65073;SDS011;52218;51.224;-2.328;2022-07-06T09:34:09;0.47;;;0.15;;
65073;SDS011;52218;51.224;-2.328;2022-07-06T09:41:41;1.17;;;0.30;;
65073;SDS011;52218;51.224;-2.328;2022-07-06T09:45:23;0.30;;;0.10;;
65073;SDS011;52218;51.224;-2.328;2022-07-06T09:52:54;2.45;;;0.40;;
65073;SDS011;52218;51.224;-2.328;2022-07-06T09:56:37;0.52;;;0.20;;
65073;SDS011;52218;51.224;-2.328;2022-07-06T10:00:23;1.52;;;0.25;;
65073;SDS011;52218;51.224;-2.328;2022-07-06T10:04:09;0.88;;;0.20;;
65073;SDS011;52218;51.224;-2.328;2022-07-06T10:07:54;0.45;;;0.25;;
65073;SDS011;52218;51.224;-2.328;2022-07-06T10:11:45;0.40;;;0.10;;
65073;SDS011;52218;51.224;-2.328;2022-07-06T10:15:31;0.47;;;0.20;;
65073;SDS011;52218;51.224;-2.328;2022-07-06T10:19:15;0.45;;;0.15;;
65073;SDS011;52218;51.224;-2.328;2022-07-06T10:22:59;0.38;;;0.20;;
65073;SDS011;52218;51.224;-2.328;2022-07-06T10:26:42;0.28;;;0.20;;
65073;SDS011;52218;51.224;-2.328;2022-07-06T10:30:25;0.17;;;0.10;;
65073;SDS011;52218;51.224;-2.328;2022-07-06T10:34:09;0.47;;;0.20;;
65073;SDS011;52218;51.224;-2.328;2022-07-06T10:38:03;1.10;;;0.28;;
65073;SDS011;52218;51.224;-2.328;2022-07-06T10:41:49;0.80;;;0.30;;
65073;SDS011;52218;51.224;-2.328;2022-07-06T10:49:16;0.77;;;0.20;;
65073;SDS011;52218;51.224;-2.328;2022-07-06T10:57:09;0.60;;;0.30;;
65073;SDS011;52218;51.224;-2.328;2022-07-06T11:00:56;0.90;;;0.30;;
65073;SDS011;52218;51.224;-2.328;2022-07-06T11:04:38;0.40;;;0.20;;
65073;SDS011;52218;51.224;-2.328;2022-07-06T11:08:20;0.52;;;0.28;;
65073;SDS011;52218;51.224;-2.328;2022-07-06T11:12:17;0.57;;;0.35;;
65073;SDS011;52218;51.224;-2.328;2022-07-06T11:16:01;0.60;;;0.30;;
65073;SDS011;52218;51.224;-2.328;2022-07-06T11:19:48;1.00;;;0.30;;
65073;SDS011;52218;51.224;-2.328;2022-07-06T11:23:37;1.88;;;0.40;;
65073;SDS011;52218;51.224;-2.328;2022-07-06T11:27:21;2.25;;;0.50;;
65073;SDS011;52218;51.224;-2.328;2022-07-06T11:31:04;0.73;;;0.30;;
65073;SDS011;52218;51.224;-2.328;2022-07-06T11:34:46;0.85;;;0.30;;
65073;SDS011;52218;51.224;-2.328;2022-07-06T11:38:28;0.68;;;0.20;;
65073;SDS011;52218;51.224;-2.328;2022-07-06T11:42:11;1.17;;;0.40;;
65073;SDS011;52218;51.224;-2.328;2022-07-06T11:45:54;1.55;;;0.20;;
65073;SDS011;52218;51.224;-2.328;2022-07-06T11:49:37;1.27;;;0.30;;
65073;SDS011;52218;51.224;-2.328;2022-07-06T11:53:20;0.15;;;0.10;;
65073;SDS011;52218;51.224;-2.328;2022-07-06T11:57:02;1.05;;;0.30;;
65073;SDS011;52218;51.224;-2.328;2022-07-06T12:01:06;0.55;;;0.20;;
65073;SDS011;52218;51.224;-2.328;2022-07-06T12:04:49;0.20;;;0.10;;
65073;SDS011;52218;51.224;-2.328;2022-07-06T12:08:31;1.48;;;0.28;;
65073;SDS011;52218;51.224;-2.328;2022-07-06T12:12:22;1.63;;;0.38;;
65073;SDS011;52218;51.224;-2.328;2022-07-06T12:16:09;1.00;;;0.30;;
65073;SDS011;52218;51.224;-2.328;2022-07-06T12:19:52;0.38;;;0.20;;
65073;SDS011;52218;51.224;-2.328;2022-07-06T12:23:39;1.92;;;0.28;;
65073;SDS011;52218;51.224;-2.328;2022-07-06T12:27:22;0.95;;;0.20;;
65073;SDS011;52218;51.224;-2.328;2022-07-06T12:31:04;0.47;;;0.25;;
65073;SDS011;52218;51.224;-2.328;2022-07-06T12:34:46;2.78;;;0.30;;
65073;SDS011;52218;51.224;-2.328;2022-07-06T12:38:32;0.55;;;0.20;;
65073;SDS011;52218;51.224;-2.328;2022-07-06T12:42:15;0.40;;;0.20;;
65073;SDS011;52218;51.224;-2.328;2022-07-06T12:46:22;0.68;;;0.13;;
65073;SDS011;52218;51.224;-2.328;2022-07-06T12:50:13;0.93;;;0.20;;
65073;SDS011;52218;51.224;-2.328;2022-07-06T12:54:14;0.73;;;0.15;;
65073;SDS011;52218;51.224;-2.328;2022-07-06T12:57:57;2.80;;;0.43;;
65073;SDS011;52218;51.224;-2.328;2022-07-06T13:01:46;1.70;;;0.43;;
65073;SDS011;52218;51.224;-2.328;2022-07-06T13:05:29;1.00;;;0.20;;
65073;SDS011;52218;51.224;-2.328;2022-07-06T13:09:11;0.55;;;0.20;;
65073;SDS011;52218;51.224;-2.328;2022-07-06T13:12:56;1.20;;;0.32;;
65073;SDS011;52218;51.224;-2.328;2022-07-06T13:16:38;2.88;;;0.30;;
65073;SDS011;52218;51.224;-2.328;2022-07-06T13:20:20;0.95;;;0.40;;
65073;SDS011;52218;51.224;-2.328;2022-07-06T13:24:02;1.48;;;0.32;;
65073;SDS011;52218;51.224;-2.328;2022-07-06T13:27:45;0.35;;;0.17;;
65073;SDS011;52218;51.224;-2.328;2022-07-06T13:31:27;1.55;;;0.32;;
65073;SDS011;52218;51.224;-2.328;2022-07-06T13:35:09;1.90;;;0.22;;
65073;SDS011;52218;51.224;-2.328;2022-07-06T13:38:51;0.68;;;0.25;;
65073;SDS011;52218;51.224;-2.328;2022-07-06T13:42:33;1.70;;;0.55;;
65073;SDS011;52218;51.224;-2.328;2022-07-06T13:46:15;1.13;;;0.38;;
65073;SDS011;52218;51.224;-2.328;2022-07-06T13:49:58;0.90;;;0.30;;
65073;SDS011;52218;51.224;-2.328;2022-07-06T13:53:40;2.05;;;0.50;;
65073;SDS011;52218;51.224;-2.328;2022-07-06T13:57:22;1.10;;;0.30;;
65073;SDS011;52218;51.224;-2.328;2022-07-06T14:01:04;1.17;;;0.38;;
65073;SDS011;52218;51.224;-2.328;2022-07-06T14:04:46;0.77;;;0.30;;
65073;SDS011;52218;51.224;-2.328;2022-07-06T14:08:28;1.38;;;0.30;;
65073;SDS011;52218;51.224;-2.328;2022-07-06T14:12:11;3.58;;;0.50;;
65073;SDS011;52218;51.224;-2.328;2022-07-06T14:15:53;1.35;;;0.43;;
65073;SDS011;52218;51.224;-2.328;2022-07-06T14:19:34;1.65;;;0.40;;
65073;SDS011;52218;51.224;-2.328;2022-07-06T14:23:16;1.45;;;0.40;;
65073;SDS011;52218;51.224;-2.328;2022-07-06T14:26:59;1.88;;;0.45;;
65073;SDS011;52218;51.224;-2.328;2022-07-06T14:30:41;1.85;;;0.40;;
65073;SDS011;52218;51.224;-2.328;2022-07-06T14:34:25;1.00;;;0.35;;
65073;SDS011;52218;51.224;-2.328;2022-07-06T14:38:07;3.35;;;0.52;;
65073;SDS011;52218;51.224;-2.328;2022-07-06T14:41:49;1.17;;;0.32;;
65073;SDS011;52218;51.224;-2.328;2022-07-06T14:45:31;1.00;;;0.38;;
65073;SDS011;52218;51.224;-2.328;2022-07-06T14:49:14;1.23;;;0.35;;
65073;SDS011;52218;51.224;-2.328;2022-07-06T14:53:01;2.15;;;0.40;;
65073;SDS011;52218;51.224;-2.328;2022-07-06T14:56:44;1.25;;;0.40;;
65073;SDS011;52218;51.224;-2.328;2022-07-06T15:00:26;2.97;;;0.40;;
65073;SDS011;52218;51.224;-2.328;2022-07-06T15:04:08;0.77;;;0.30;;
65073;SDS011;52218;51.224;-2.328;2022-07-06T15:07:50;2.63;;;0.30;;
65073;SDS011;52218;51.224;-2.328;2022-07-06T15:11:35;1.80;;;0.22;;
65073;SDS011;52218;51.224;-2.328;2022-07-06T15:15:17;1.45;;;0.40;;
65073;SDS011;52218;51.224;-2.328;2022-07-06T15:19:19;4.60;;;0.40;;
65073;SDS011;52218;51.224;-2.328;2022-07-06T15:23:02;1.42;;;0.40;;
65073;SDS011;52218;51.224;-2.328;2022-07-06T15:26:44;1.15;;;0.40;;
65073;SDS011;52218;51.224;-2.328;2022-07-06T15:30:26;1.27;;;0.40;;
65073;SDS011;52218;51.224;-2.328;2022-07-06T15:34:12;1.95;;;0.60;;
65073;SDS011;52218;51.224;-2.328;2022-07-06T15:37:54;2.97;;;0.45;;
65073;SDS011;52218;51.224;-2.328;2022-07-06T15:41:36;2.50;;;0.50;;
65073;SDS011;52218;51.224;-2.328;2022-07-06T15:45:18;3.15;;;0.50;;
65073;SDS011;52218;51.224;-2.328;2022-07-06T15:49:01;1.60;;;0.50;;
65073;SDS011;52218;51.224;-2.328;2022-07-06T15:52:44;2.95;;;0.50;;
65073;SDS011;52218;51.224;-2.328;2022-07-06T15:56:26;1.83;;;0.50;;
65073;SDS011;52218;51.224;-2.328;2022-07-06T16:00:08;2.60;;;0.50;;
65073;SDS011;52218;51.224;-2.328;2022-07-06T16:03:50;1.67;;;0.80;;
65073;SDS011;52218;51.224;-2.328;2022-07-06T16:07:32;2.35;;;0.40;;
65073;SDS011;52218;51.224;-2.328;2022-07-06T16:11:34;2.47;;;0.40;;
65073;SDS011;52218;51.224;-2.328;2022-07-06T16:15:17;1.80;;;0.63;;
65073;SDS011;52218;51.224;-2.328;2022-07-06T16:18:59;1.20;;;0.43;;
65073;SDS011;52218;51.224;-2.328;2022-07-06T16:22:41;1.10;;;0.40;;
65073;SDS011;52218;51.224;-2.328;2022-07-06T16:26:23;3.00;;;0.50;;
65073;SDS011;52218;51.224;-2.328;2022-07-06T16:30:07;2.17;;;0.50;;
65073;SDS011;52218;51.224;-2.328;2022-07-06T16:33:49;3.00;;;0.40;;
65073;SDS011;52218;51.224;-2.328;2022-07-06T16:37:31;1.25;;;0.50;;
65073;SDS011;52218;51.224;-2.328;2022-07-06T16:41:13;1.52;;;0.35;;
65073;SDS011;52218;51.224;-2.328;2022-07-06T16:44:55;2.08;;;0.47;;
65073;SDS011;52218;51.224;-2.328;2022-07-06T16:48:37;1.75;;;0.50;;
65073;SDS011;52218;51.224;-2.328;2022-07-06T16:52:19;1.45;;;0.40;;
65073;SDS011;52218;51.224;-2.328;2022-07-06T16:56:01;2.53;;;0.40;;
65073;SDS011;52218;51.224;-2.328;2022-07-06T16:59:44;3.65;;;0.40;;
65073;SDS011;52218;51.224;-2.328;2022-07-06T17:03:26;1.77;;;0.60;;
65073;SDS011;52218;51.224;-2.328;2022-07-06T17:07:10;1.83;;;0.57;;
65073;SDS011;52218;51.224;-2.328;2022-07-06T17:10:52;3.65;;;0.80;;
65073;SDS011;52218;51.224;-2.328;2022-07-06T17:14:34;3.33;;;0.70;;
65073;SDS011;52218;51.224;-2.328;2022-07-06T17:18:16;3.45;;;0.65;;
65073;SDS011;52218;51.224;-2.328;2022-07-06T17:21:58;2.00;;;0.60;;
65073;SDS011;52218;51.224;-2.328;2022-07-06T17:25:46;2.17;;;0.47;;
65073;SDS011;52218;51.224;-2.328;2022-07-06T17:29:29;3.58;;;0.73;;
65073;SDS011;52218;51.224;-2.328;2022-07-06T17:33:11;1.77;;;0.60;;
65073;SDS011;52218;51.224;-2.328;2022-07-06T17:36:53;4.05;;;0.55;;
65073;SDS011;52218;51.224;-2.328;2022-07-06T17:40:35;1.48;;;0.47;;
65073;SDS011;52218;51.224;-2.328;2022-07-06T17:44:17;2.47;;;0.60;;
65073;SDS011;52218;51.224;-2.328;2022-07-06T17:47:59;2.22;;;0.70;;
65073;SDS011;52218;51.224;-2.328;2022-07-06T17:51:41;2.60;;;0.70;;
65073;SDS011;52218;51.224;-2.328;2022-07-06T17:55:23;1.65;;;0.50;;
65073;SDS011;52218;51.224;-2.328;2022-07-06T17:59:05;1.67;;;0.55;;
65073;SDS011;52218;51.224;-2.328;2022-07-06T18:02:47;3.30;;;0.70;;
65073;SDS011;52218;51.224;-2.328;2022-07-06T18:06:29;4.07;;;0.50;;
65073;SDS011;52218;51.224;-2.328;2022-07-06T18:10:11;2.63;;;0.77;;
65073;SDS011;52218;51.224;-2.328;2022-07-06T18:13:53;1.42;;;0.40;;
65073;SDS011;52218;51.224;-2.328;2022-07-06T18:17:38;2.08;;;0.73;;
65073;SDS011;52218;51.224;-2.328;2022-07-06T18:21:21;2.67;;;0.50;;
65073;SDS011;52218;51.224;-2.328;2022-07-06T18:25:03;2.53;;;0.60;;
65073;SDS011;52218;51.224;-2.328;2022-07-06T18:28:45;1.83;;;0.50;;
65073;SDS011;52218;51.224;-2.328;2022-07-06T18:32:27;1.52;;;0.63;;
65073;SDS011;52218;51.224;-2.328;2022-07-06T18:36:09;2.60;;;0.50;;
65073;SDS011;52218;51.224;-2.328;2022-07-06T18:39:51;4.35;;;0.60;;
65073;SDS011;52218;51.224;-2.328;2022-07-06T18:43:33;2.55;;;0.50;;
65073;SDS011;52218;51.224;-2.328;2022-07-06T18:47:15;2.10;;;0.70;;
65073;SDS011;52218;51.224;-2.328;2022-07-06T18:51:02;2.53;;;0.70;;
65073;SDS011;52218;51.224;-2.328;2022-07-06T18:54:44;2.53;;;0.75;;
65073;SDS011;52218;51.224;-2.328;2022-07-06T18:58:26;3.08;;;0.57;;
65073;SDS011;52218;51.224;-2.328;2022-07-06T19:02:08;1.90;;;0.70;;
65073;SDS011;52218;51.224;-2.328;2022-07-06T19:05:50;3.10;;;0.80;;
65073;SDS011;52218;51.224;-2.328;2022-07-06T19:09:33;2.92;;;0.65;;
65073;SDS011;52218;51.224;-2.328;2022-07-06T19:13:15;1.88;;;0.57;;
65073;SDS011;52218;51.224;-2.328;2022-07-06T19:16:58;2.38;;;0.70;;
65073;SDS011;52218;51.224;-2.328;2022-07-06T19:20:41;1.30;;;0.60;;
65073;SDS011;52218;51.224;-2.328;2022-07-06T19:24:23;1.40;;;0.60;;
65073;SDS011;52218;51.224;-2.328;2022-07-06T19:28:05;2.08;;;0.50;;
65073;SDS011;52218;51.224;-2.328;2022-07-06T19:31:47;3.42;;;0.95;;
65073;SDS011;52218;51.224;-2.328;2022-07-06T19:35:29;2.22;;;0.80;;
65073;SDS011;52218;51.224;-2.328;2022-07-06T19:39:11;4.55;;;0.85;;
65073;SDS011;52218;51.224;-2.328;2022-07-06T19:42:53;4.22;;;2.20;;
65073;SDS011;52218;51.224;-2.328;2022-07-06T19:46:35;1.60;;;0.63;;
65073;SDS011;52218;51.224;-2.328;2022-07-06T19:50:19;3.00;;;0.95;;
65073;SDS011;52218;51.224;-2.328;2022-07-06T19:54:01;3.47;;;1.00;;
65073;SDS011;52218;51.224;-2.328;2022-07-06T19:57:43;2.10;;;0.70;;
65073;SDS011;52218;51.224;-2.328;2022-07-06T20:01:26;3.30;;;0.70;;
65073;SDS011;52218;51.224;-2.328;2022-07-06T20:05:08;3.90;;;0.93;;
65073;SDS011;52218;51.224;-2.328;2022-07-06T20:08:50;2.95;;;0.70;;
65073;SDS011;52218;51.224;-2.328;2022-07-06T20:12:32;2.65;;;0.82;;
65073;SDS011;52218;51.224;-2.328;2022-07-06T20:16:14;2.55;;;1.20;;
65073;SDS011;52218;51.224;-2.328;2022-07-06T20:19:56;4.38;;;0.82;;
65073;SDS011;52218;51.224;-2.328;2022-07-06T20:23:39;2.42;;;0.70;;
65073;SDS011;52218;51.224;-2.328;2022-07-06T20:27:21;2.65;;;0.70;;
65073;SDS011;52218;51.224;-2.328;2022-07-06T20:31:03;2.45;;;0.73;;
65073;SDS011;52218;51.224;-2.328;2022-07-06T20:34:45;5.28;;;1.23;;
65073;SDS011;52218;51.224;-2.328;2022-07-06T20:38:27;5.72;;;1.80;;
65073;SDS011;52218;51.224;-2.328;2022-07-06T20:42:09;3.28;;;1.13;;
65073;SDS011;52218;51.224;-2.328;2022-07-06T20:45:51;3.05;;;0.70;;
65073;SDS011;52218;51.224;-2.328;2022-07-06T20:49:33;1.75;;;0.70;;
65073;SDS011;52218;51.224;-2.328;2022-07-06T20:53:14;3.78;;;0.70;;
65073;SDS011;52218;51.224;-2.328;2022-07-06T20:56:56;2.70;;;0.80;;
65073;SDS011;52218;51.224;-2.328;2022-07-06T21:00:38;2.08;;;0.57;;
65073;SDS011;52218;51.224;-2.328;2022-07-06T21:04:21;1.52;;;0.40;;
65073;SDS011;52218;51.224;-2.328;2022-07-06T21:08:03;1.83;;;0.70;;
65073;SDS011;52218;51.224;-2.328;2022-07-06T21:11:45;1.65;;;0.50;;
65073;SDS011;52218;51.224;-2.328;2022-07-06T21:15:28;1.88;;;0.60;;
65073;SDS011;52218;51.224;-2.328;2022-07-06T21:19:10;2.28;;;0.60;;
65073;SDS011;52218;51.224;-2.328;2022-07-06T21:22:52;3.90;;;0.90;;
65073;SDS011;52218;51.224;-2.328;2022-07-06T21:26:34;2.58;;;0.70;;
65073;SDS011;52218;51.224;-2.328;2022-07-06T21:30:22;2.67;;;0.60;;
65073;SDS011;52218;51.224;-2.328;2022-07-06T21:34:05;1.67;;;0.68;;
65073;SDS011;52218;51.224;-2.328;2022-07-06T21:37:47;2.22;;;0.70;;
65073;SDS011;52218;51.224;-2.328;2022-07-06T21:41:28;3.08;;;0.70;;
65073;SDS011;52218;51.224;-2.328;2022-07-06T21:45:11;3.20;;;0.90;;
65073;SDS011;52218;51.224;-2.328;2022-07-06T21:48:53;2.95;;;0.80;;
65073;SDS011;52218;51.224;-2.328;2022-07-06T21:52:35;1.38;;;0.52;;
65073;SDS011;52218;51.224;-2.328;2022-07-06T21:56:17;2.28;;;0.70;;
65073;SDS011;52218;51.224;-2.328;2022-07-06T21:59:59;1.88;;;0.90;;
65073;SDS011;52218;51.224;-2.328;2022-07-06T22:03:46;2.50;;;0.75;;
65073;SDS011;52218;51.224;-2.328;2022-07-06T22:07:28;2.92;;;0.70;;
65073;SDS011;52218;51.224;-2.328;2022-07-06T22:11:10;2.78;;;0.82;;
65073;SDS011;52218;51.224;-2.328;2022-07-06T22:14:54;3.22;;;0.70;;
65073;SDS011;52218;51.224;-2.328;2022-07-06T22:18:36;3.72;;;1.20;;